Time;durP1;ratioP1;P1;durP2;ratioP2;P2;SDS_P1;SDS_P2;PMS_P1;PMS_P2;Temp;Humidity;BMP_temperature;BMP_pressure;BME280_temperature;BME280_humidity;BME280_pressure;Samples;Min_cycle;Max_cycle;Signal;HPM_P1;HPM_P2
2024/04/18 00:00:45;;;;;;;4.97;3.10;;;5.40;91.20;;;;;;5397728;26;19996;-81
2024/04/18 00:03:10;;;;;;;6.40;3.50;;;5.40;91.30;;;;;;5398926;26;19999;-80
2024/04/18 00:05:36;;;;;;;6.70;3.47;;;5.40;91.20;;;;;;5405154;26;20636;-80
2024/04/18 00:08:02;;;;;;;6.05;3.17;;;5.30;91.20;;;;;;5382639;26;20196;-80
2024/04/18 00:10:27;;;;;;;5.85;3.20;;;5.20;91.10;;;;;;5403482;26;19994;-80
2024/04/18 00:12:53;;;;;;;4.72;3.22;;;5.10;91.20;;;;;;5396041;26;20008;-80
2024/04/18 00:15:20;;;;;;;6.07;3.38;;;5.10;91.30;;;;;;5415992;26;20652;-79
2024/04/18 00:17:46;;;;;;;6.20;3.25;;;5.10;91.30;;;;;;5399280;26;20048;-80
2024/04/18 00:20:12;;;;;;;6.25;3.40;;;5.10;91.50;;;;;;5394393;26;20447;-80
2024/04/18 00:22:38;;;;;;;5.47;3.55;;;5.10;91.40;;;;;;5401275;26;19999;-80
2024/04/18 00:25:06;;;;;;;6.90;3.20;;;5.00;91.40;;;;;;5408018;26;20003;-80
2024/04/18 00:27:31;;;;;;;5.95;3.30;;;5.00;91.60;;;;;;5366032;26;20218;-80
2024/04/18 00:29:57;;;;;;;5.13;2.78;;;5.10;91.70;;;;;;5365510;26;20045;-81
2024/04/18 00:32:22;;;;;;;5.35;2.92;;;5.00;91.60;;;;;;5396508;26;20007;-80
2024/04/18 00:34:48;;;;;;;4.82;2.60;;;5.00;91.40;;;;;;5405947;26;20003;-80
2024/04/18 00:37:14;;;;;;;4.55;2.72;;;5.00;91.40;;;;;;5396779;26;19999;-80
2024/04/18 00:39:39;;;;;;;6.00;2.83;;;5.00;91.40;;;;;;5365882;26;20424;-80
2024/04/18 00:42:05;;;;;;;5.65;2.42;;;4.90;91.40;;;;;;5392345;26;19999;-80
2024/04/18 00:44:31;;;;;;;5.53;3.35;;;4.90;91.60;;;;;;5394865;26;20497;-80
2024/04/18 00:46:57;;;;;;;3.95;2.30;;;5.00;91.70;;;;;;5396343;26;20010;-80
2024/04/18 00:49:24;;;;;;;5.18;2.63;;;5.10;91.80;;;;;;5398878;26;19996;-79
2024/04/18 00:51:50;;;;;;;3.67;2.33;;;5.10;91.80;;;;;;5397299;26;20007;-80
2024/04/18 00:54:16;;;;;;;5.10;2.35;;;5.10;91.90;;;;;;5398201;26;20535;-81
2024/04/18 00:56:44;;;;;;;4.47;2.45;;;5.10;91.90;;;;;;5395530;26;20003;-79
2024/04/18 00:59:12;;;;;;;6.03;3.20;;;5.10;91.90;;;;;;5390315;26;20051;-80
2024/04/18 01:01:37;;;;;;;4.65;3.00;;;5.00;92.10;;;;;;5361695;26;20341;-80
2024/04/18 01:04:03;;;;;;;4.63;3.00;;;5.00;92.30;;;;;;5357072;26;20011;-82
2024/04/18 01:06:29;;;;;;;5.45;3.08;;;5.00;92.30;;;;;;5355793;26;20339;-79
2024/04/18 01:08:56;;;;;;;4.88;2.90;;;4.90;92.30;;;;;;5389776;26;19996;-79
2024/04/18 01:11:21;;;;;;;5.10;3.13;;;4.90;92.30;;;;;;5381011;26;20581;-80
2024/04/18 01:13:47;;;;;;;7.15;3.38;;;4.90;92.30;;;;;;5380967;26;19995;-80
2024/04/18 01:16:12;;;;;;;6.85;3.40;;;4.80;92.30;;;;;;5404688;26;20459;-83
2024/04/18 01:18:38;;;;;;;6.03;2.97;;;4.80;92.30;;;;;;5367150;26;20011;-81
2024/04/18 01:21:04;;;;;;;4.80;2.92;;;4.70;92.30;;;;;;5392890;26;20038;-82
2024/04/18 01:23:30;;;;;;;4.40;2.45;;;4.70;92.40;;;;;;5398021;26;20004;-81
2024/04/18 01:25:56;;;;;;;4.93;2.40;;;4.80;92.20;;;;;;5409348;26;20018;-82
2024/04/18 01:28:22;;;;;;;4.13;2.45;;;4.70;92.10;;;;;;5365978;26;20038;-82
2024/04/18 01:30:47;;;;;;;4.95;2.50;;;4.70;92.20;;;;;;5388184;26;20007;-82
2024/04/18 01:33:13;;;;;;;5.53;2.50;;;4.80;92.20;;;;;;5397340;26;20003;-82
2024/04/18 01:35:39;;;;;;;4.88;2.70;;;4.80;92.20;;;;;;5409987;26;20006;-81
2024/04/18 01:38:05;;;;;;;4.43;2.95;;;4.80;92.30;;;;;;5395789;26;19991;-82
2024/04/18 01:40:30;;;;;;;5.05;2.30;;;4.70;92.40;;;;;;5392755;26;20002;-83
2024/04/18 01:42:56;;;;;;;5.80;2.67;;;4.80;92.40;;;;;;5395710;26;20450;-82
2024/04/18 01:45:22;;;;;;;4.45;2.40;;;4.80;92.40;;;;;;5393511;26;20671;-82
2024/04/18 01:47:47;;;;;;;4.85;2.80;;;4.90;92.40;;;;;;5399978;26;20004;-82
2024/04/18 01:50:14;;;;;;;4.45;2.42;;;4.80;92.40;;;;;;5397812;26;20000;-82
2024/04/18 01:52:39;;;;;;;10.82;6.72;;;4.80;92.40;;;;;;5363755;26;19998;-82
2024/04/18 01:55:08;;;;;;;10.90;6.25;;;4.80;92.50;;;;;;5357550;26;19996;-82
2024/04/18 01:57:38;;;;;;;11.77;4.20;;;4.70;92.50;;;;;;5399068;26;20547;-83
2024/04/18 02:00:04;;;;;;;11.73;6.55;;;4.70;92.60;;;;;;5381744;26;20294;-83
2024/04/18 02:02:30;;;;;;;7.90;3.90;;;4.70;92.80;;;;;;5397050;26;19999;-82
2024/04/18 02:04:56;;;;;;;8.13;3.17;;;4.60;92.80;;;;;;5390327;26;20907;-82
2024/04/18 02:07:21;;;;;;;8.27;3.60;;;4.60;92.70;;;;;;5395938;26;20018;-82
2024/04/18 02:09:47;;;;;;;6.47;3.45;;;4.60;92.70;;;;;;5394631;26;20040;-82
2024/04/18 02:12:12;;;;;;;7.40;4.00;;;4.50;92.80;;;;;;5363558;26;20885;-82
2024/04/18 02:14:39;;;;;;;7.75;3.60;;;4.50;92.80;;;;;;5394375;26;20039;-83
2024/04/18 02:17:05;;;;;;;7.82;4.18;;;4.50;92.80;;;;;;5392586;26;19995;-83
2024/04/18 02:19:31;;;;;;;7.85;5.05;;;4.40;92.80;;;;;;5398313;26;20786;-82
2024/04/18 02:21:56;;;;;;;5.78;3.58;;;4.40;92.90;;;;;;5372288;26;20009;-83
2024/04/18 02:24:22;;;;;;;4.68;2.90;;;4.30;93.00;;;;;;5399333;26;20010;-83
2024/04/18 02:26:49;;;;;;;6.03;3.53;;;4.30;93.10;;;;;;5393014;26;19999;-83
2024/04/18 02:29:16;;;;;;;6.97;3.25;;;4.30;93.00;;;;;;5414907;26;19999;-82
2024/04/18 02:31:41;;;;;;;5.13;3.22;;;4.20;93.10;;;;;;5362848;26;20445;-83
2024/04/18 02:34:07;;;;;;;6.07;3.60;;;4.20;93.20;;;;;;5390774;26;20050;-82
2024/04/18 02:36:33;;;;;;;7.30;3.50;;;4.20;93.40;;;;;;5402675;26;20019;-81
2024/04/18 02:38:58;;;;;;;7.22;3.72;;;4.20;93.40;;;;;;5389709;26;20504;-81
2024/04/18 02:41:24;;;;;;;5.57;2.95;;;4.10;93.50;;;;;;5388985;26;19988;-81
2024/04/18 02:43:54;;;;;;;6.20;4.40;;;4.10;93.60;;;;;;5416018;26;19999;-82
2024/04/18 02:46:20;;;;;;;6.07;3.92;;;4.20;93.70;;;;;;5395525;26;20000;-82
2024/04/18 02:48:46;;;;;;;6.85;3.60;;;4.10;93.70;;;;;;5414280;26;20006;-82
2024/04/18 02:51:11;;;;;;;5.47;3.67;;;4.10;93.70;;;;;;5393524;26;20027;-82
2024/04/18 02:53:37;;;;;;;5.70;3.63;;;4.10;93.70;;;;;;5358183;26;20639;-82
2024/04/18 02:56:03;;;;;;;6.03;3.78;;;4.20;93.80;;;;;;5354153;26;20011;-83
2024/04/18 02:58:29;;;;;;;8.32;4.10;;;4.10;93.70;;;;;;5401599;26;19996;-82
2024/04/18 03:00:54;;;;;;;9.02;4.95;;;4.10;93.70;;;;;;5393159;26;20003;-83
2024/04/18 03:03:20;;;;;;;7.90;4.35;;;4.10;93.80;;;;;;5401501;26;20003;-82
2024/04/18 03:05:45;;;;;;;6.32;4.43;;;4.10;93.80;;;;;;5395569;26;20121;-82
2024/04/18 03:08:11;;;;;;;6.82;4.30;;;4.10;93.80;;;;;;5399287;26;20097;-83
2024/04/18 03:10:46;;;;;;;7.00;4.30;;;4.00;93.80;;;;;;5393119;26;19995;-83
2024/04/18 03:13:12;;;;;;;8.13;5.55;;;4.00;93.90;;;;;;5365866;26;20003;-83
2024/04/18 03:15:43;;;;;;;10.55;7.57;;;4.00;93.90;;;;;;5389410;26;20004;-82
2024/04/18 03:18:09;;;;;;;11.75;8.18;;;4.00;93.90;;;;;;5391420;26;20448;-84
2024/04/18 03:20:35;;;;;;;8.85;6.63;;;3.90;94.00;;;;;;5372079;26;20011;-82
2024/04/18 03:23:02;;;;;;;9.70;5.90;;;3.90;94.10;;;;;;5354584;26;20011;-82
2024/04/18 03:25:27;;;;;;;11.98;8.30;;;3.90;94.20;;;;;;5361335;26;20010;-82
2024/04/18 03:27:53;;;;;;;23.48;15.73;;;3.90;94.30;;;;;;5318277;26;20005;-82
2024/04/18 03:30:18;;;;;;;22.05;16.02;;;3.90;94.30;;;;;;5374107;26;20061;-82
2024/04/18 03:32:44;;;;;;;19.52;13.43;;;3.80;94.40;;;;;;5364568;26;20535;-82
2024/04/18 03:35:10;;;;;;;21.13;14.85;;;3.80;94.40;;;;;;5374383;26;19992;-82
2024/04/18 03:37:35;;;;;;;11.00;7.20;;;3.80;94.50;;;;;;5359709;26;20028;-82
2024/04/18 03:40:01;;;;;;;8.68;6.05;;;3.80;94.50;;;;;;5368548;26;20714;-82
2024/04/18 03:42:27;;;;;;;20.60;13.80;;;3.80;94.40;;;;;;5356664;26;20005;-82
2024/04/18 03:44:54;;;;;;;19.33;15.25;;;3.80;94.40;;;;;;5367138;26;19995;-82
2024/04/18 03:47:19;;;;;;;12.40;8.05;;;3.70;94.40;;;;;;5367532;26;20000;-82
2024/04/18 03:49:45;;;;;;;10.35;7.65;;;3.70;94.30;;;;;;5363932;26;20141;-83
2024/04/18 03:52:10;;;;;;;13.05;8.95;;;3.70;94.30;;;;;;5346457;26;20046;-83
2024/04/18 03:54:36;;;;;;;15.80;11.30;;;3.60;94.30;;;;;;5337763;26;20281;-82
2024/04/18 03:57:02;;;;;;;11.77;8.65;;;3.70;94.40;;;;;;5356972;26;20001;-82
2024/04/18 03:59:27;;;;;;;9.77;7.15;;;3.70;94.40;;;;;;5368059;26;20000;-81
2024/04/18 04:01:53;;;;;;;9.73;7.00;;;3.70;94.50;;;;;;5363176;26;19997;-83
2024/04/18 04:04:18;;;;;;;10.65;7.03;;;3.60;94.50;;;;;;5363498;26;19997;-82
2024/04/18 04:06:44;;;;;;;16.42;7.13;;;3.60;94.50;;;;;;5370780;26;19993;-82
2024/04/18 04:09:10;;;;;;;11.50;6.75;;;3.60;94.50;;;;;;5336385;26;20000;-82
2024/04/18 04:11:35;;;;;;;10.35;6.82;;;3.60;94.60;;;;;;5312834;26;20012;-82
2024/04/18 04:14:01;;;;;;;10.98;7.82;;;3.60;94.60;;;;;;5377981;26;20012;-83
2024/04/18 04:16:27;;;;;;;11.18;7.88;;;3.60;94.60;;;;;;5362215;26;20024;-83
2024/04/18 04:18:55;;;;;;;14.77;8.10;;;3.60;94.60;;;;;;5333461;26;20050;-83
2024/04/18 04:21:22;;;;;;;10.85;8.10;;;3.60;94.70;;;;;;5378494;26;20008;-83
2024/04/18 04:23:47;;;;;;;10.80;8.30;;;3.60;94.70;;;;;;5318774;26;20004;-83
2024/04/18 04:26:14;;;;;;;11.52;7.80;;;3.60;94.70;;;;;;5373815;26;20841;-82
2024/04/18 04:28:40;;;;;;;10.88;8.20;;;3.60;94.80;;;;;;5367107;26;20133;-83
2024/04/18 04:31:05;;;;;;;11.43;8.30;;;3.50;94.80;;;;;;5385807;26;20429;-82
2024/04/18 04:33:32;;;;;;;10.52;7.65;;;3.50;94.80;;;;;;5377707;26;20010;-83
2024/04/18 04:35:59;;;;;;;10.30;8.73;;;3.50;94.90;;;;;;5358684;26;20054;-83
2024/04/18 04:38:24;;;;;;;10.60;8.02;;;3.50;94.90;;;;;;5332981;26;20361;-82
2024/04/18 04:40:50;;;;;;;10.88;7.85;;;3.50;94.90;;;;;;5384899;26;20366;-83
2024/04/18 04:43:16;;;;;;;11.73;8.40;;;3.50;94.80;;;;;;5335840;26;20000;-82
2024/04/18 04:45:41;;;;;;;14.05;8.98;;;3.50;94.90;;;;;;5360468;26;20094;-83
2024/04/18 04:48:07;;;;;;;10.60;7.88;;;3.50;94.90;;;;;;5362872;26;20032;-83
2024/04/18 04:50:33;;;;;;;12.88;9.13;;;3.50;94.90;;;;;;5365067;26;20007;-83
2024/04/18 04:52:58;;;;;;;11.85;8.13;;;3.50;94.90;;;;;;5369608;26;20081;-82
2024/04/18 04:55:24;;;;;;;11.18;8.45;;;3.50;94.90;;;;;;5337733;26;20001;-82
2024/04/18 04:57:50;;;;;;;11.80;9.38;;;3.50;94.90;;;;;;5340540;26;20006;-82
2024/04/18 05:00:16;;;;;;;14.48;9.52;;;3.50;94.90;;;;;;5328030;26;20072;-81
2024/04/18 05:02:41;;;;;;;14.60;10.15;;;3.50;94.90;;;;;;5328465;26;20339;-81
2024/04/18 05:05:08;;;;;;;13.27;9.98;;;3.50;94.80;;;;;;5368880;26;19996;-82
2024/04/18 05:07:34;;;;;;;14.48;10.63;;;3.50;94.90;;;;;;5337860;26;20001;-82
2024/04/18 05:10:00;;;;;;;14.90;11.40;;;3.50;94.80;;;;;;5352588;26;20007;-81
2024/04/18 05:12:26;;;;;;;14.32;11.35;;;3.60;94.80;;;;;;5330117;26;20015;-82
2024/04/18 05:14:51;;;;;;;13.32;11.18;;;3.50;94.80;;;;;;5359922;26;20018;-82
2024/04/18 05:17:17;;;;;;;12.90;9.75;;;3.60;94.80;;;;;;5313394;26;20445;-83
2024/04/18 05:19:43;;;;;;;13.25;11.02;;;3.60;94.80;;;;;;5377732;26;20536;-83
2024/04/18 05:22:08;;;;;;;14.23;10.75;;;3.60;94.80;;;;;;5431543;26;20042;-83
2024/04/18 05:24:34;;;;;;;14.23;10.80;;;3.60;94.80;;;;;;5421839;26;20792;-83
2024/04/18 05:27:00;;;;;;;13.00;10.60;;;3.60;94.80;;;;;;5409885;26;19996;-82
2024/04/18 05:32:10;;;;;;;14.80;11.23;;;3.70;94.80;;;;;;5430956;26;20013;-81
2024/04/18 05:34:35;;;;;;;13.77;10.40;;;3.80;94.70;;;;;;5403979;26;19992;-82
2024/04/18 05:37:01;;;;;;;15.43;10.35;;;3.80;94.70;;;;;;5431909;26;20103;-81
2024/04/18 05:39:27;;;;;;;14.77;11.45;;;3.90;94.70;;;;;;5404316;26;20312;-81
2024/04/18 05:41:53;;;;;;;14.57;10.75;;;3.90;94.70;;;;;;5398510;26;20037;-80
2024/04/18 05:44:19;;;;;;;14.20;10.30;;;4.00;94.70;;;;;;5404273;26;20452;-81
2024/04/18 05:46:44;;;;;;;14.45;11.27;;;4.10;94.60;;;;;;5428578;26;20003;-81
2024/04/18 05:49:10;;;;;;;13.00;10.27;;;4.10;94.70;;;;;;5416702;26;20018;-80
2024/04/18 05:51:36;;;;;;;11.55;9.27;;;4.20;94.70;;;;;;5430163;26;20080;-80
2024/04/18 05:54:04;;;;;;;16.00;10.52;;;4.30;94.70;;;;;;5399490;26;20602;-80
2024/04/18 05:56:29;;;;;;;13.50;10.20;;;4.40;94.60;;;;;;5420513;26;20007;-80
2024/04/18 05:58:55;;;;;;;14.15;9.63;;;4.40;94.70;;;;;;5414567;26;19995;-80
2024/04/18 06:01:21;;;;;;;14.07;9.80;;;4.40;94.70;;;;;;5430256;26;20052;-80
2024/04/18 06:03:46;;;;;;;14.55;10.07;;;4.50;94.80;;;;;;5429183;26;20075;-80
2024/04/18 06:06:12;;;;;;;16.95;9.85;;;4.60;94.80;;;;;;5428063;26;20010;-81
2024/04/18 06:08:37;;;;;;;11.95;9.40;;;4.60;94.80;;;;;;5428562;26;20906;-81
2024/04/18 06:11:03;;;;;;;12.52;8.90;;;4.70;94.70;;;;;;5435919;26;20010;-81
2024/04/18 06:13:30;;;;;;;15.05;10.23;;;4.80;94.70;;;;;;5416624;26;19995;-81
2024/04/18 06:15:56;;;;;;;15.25;10.07;;;4.90;94.70;;;;;;5431007;26;20003;-81
2024/04/18 06:18:22;;;;;;;14.23;9.95;;;5.00;94.70;;;;;;5434783;26;20177;-81
2024/04/18 06:20:51;;;;;;;13.88;9.82;;;5.00;94.60;;;;;;5436611;26;20006;-81
2024/04/18 06:23:17;;;;;;;13.15;9.02;;;5.10;94.70;;;;;;5416841;26;20518;-81
2024/04/18 06:25:43;;;;;;;14.13;10.13;;;5.20;94.60;;;;;;5403428;26;19998;-80
2024/04/18 06:28:11;;;;;;;13.35;9.73;;;5.30;94.50;;;;;;5429342;26;21071;-80
2024/04/18 06:30:38;;;;;;;16.98;9.88;;;5.40;94.40;;;;;;5431653;26;20013;-81
2024/04/18 06:33:04;;;;;;;13.70;10.13;;;5.50;94.30;;;;;;5431465;26;19999;-80
2024/04/18 06:35:29;;;;;;;15.73;10.70;;;5.60;94.30;;;;;;5429678;26;20513;-81
2024/04/18 06:37:55;;;;;;;14.80;9.52;;;5.70;94.30;;;;;;5422967;26;20002;-81
2024/04/18 06:40:23;;;;;;;14.00;9.23;;;5.90;94.20;;;;;;5400922;26;20010;-81
2024/04/18 06:42:49;;;;;;;14.05;10.15;;;6.00;94.00;;;;;;5409763;26;20896;-80
2024/04/18 06:45:15;;;;;;;14.07;9.25;;;6.10;93.60;;;;;;5426941;26;20013;-81
2024/04/18 06:47:41;;;;;;;13.75;9.13;;;6.10;93.40;;;;;;5404297;26;19995;-81
2024/04/18 06:50:06;;;;;;;14.73;9.82;;;6.20;93.30;;;;;;5397844;26;20010;-81
2024/04/18 06:52:32;;;;;;;12.95;8.90;;;6.40;93.10;;;;;;5432933;26;20100;-81
2024/04/18 06:54:58;;;;;;;14.52;9.45;;;6.50;92.90;;;;;;5429250;26;20477;-79
2024/04/18 06:57:23;;;;;;;14.77;10.15;;;6.60;92.60;;;;;;5428293;26;20002;-79
2024/04/18 06:59:49;;;;;;;12.15;8.70;;;6.70;92.40;;;;;;5415719;26;20989;-81
2024/04/18 07:02:15;;;;;;;14.38;9.88;;;6.90;92.30;;;;;;5427172;26;20084;-82
2024/04/18 07:04:44;;;;;;;11.98;8.57;;;7.00;92.00;;;;;;5431365;26;20008;-81
2024/04/18 07:07:10;;;;;;;11.95;8.90;;;7.10;91.20;;;;;;5403936;26;20326;-80
2024/04/18 07:09:35;;;;;;;14.30;8.82;;;7.30;91.30;;;;;;5449152;26;20038;-82
2024/04/18 07:12:01;;;;;;;13.20;9.10;;;7.50;90.70;;;;;;5421842;26;20722;-80
2024/04/18 07:14:27;;;;;;;17.13;9.43;;;7.60;90.00;;;;;;5432181;26;20014;-80
2024/04/18 07:16:52;;;;;;;12.65;8.75;;;7.70;89.90;;;;;;5428024;26;19998;-82
2024/04/18 07:19:18;;;;;;;12.98;8.68;;;7.70;89.00;;;;;;5401273;26;20003;-80
2024/04/18 07:21:43;;;;;;;12.40;7.47;;;7.90;89.20;;;;;;5412308;26;20013;-80
2024/04/18 07:24:09;;;;;;;9.98;6.85;;;8.10;88.90;;;;;;5432450;26;20149;-80
2024/04/18 07:26:35;;;;;;;9.95;6.88;;;8.10;87.70;;;;;;5425153;26;20451;-80
2024/04/18 07:29:00;;;;;;;12.85;7.53;;;8.30;87.30;;;;;;5431974;26;20006;-80
2024/04/18 07:31:26;;;;;;;10.48;6.00;;;8.30;86.50;;;;;;5429649;26;19998;-79
2024/04/18 07:33:52;;;;;;;10.93;5.93;;;8.40;86.40;;;;;;5420400;26;20534;-79
2024/04/18 07:36:21;;;;;;;10.90;5.82;;;8.60;84.90;;;;;;5428116;26;20074;-79
2024/04/18 07:38:49;;;;;;;10.68;6.95;;;8.60;84.60;;;;;;5433020;26;20216;-79
2024/04/18 07:41:15;;;;;;;11.82;6.50;;;8.80;85.00;;;;;;5427218;26;20058;-79
2024/04/18 07:43:41;;;;;;;9.82;5.82;;;9.00;84.20;;;;;;5427040;26;19991;-79
2024/04/18 07:46:08;;;;;;;8.88;5.65;;;9.10;84.10;;;;;;5426214;26;19998;-79
2024/04/18 07:48:34;;;;;;;9.10;5.15;;;9.20;83.50;;;;;;5442689;26;20344;-79
2024/04/18 07:50:59;;;;;;;14.27;6.35;;;9.40;83.10;;;;;;5406202;26;19995;-79
2024/04/18 07:53:26;;;;;;;7.72;5.05;;;9.40;81.90;;;;;;5405936;26;20011;-79
2024/04/18 07:55:51;;;;;;;9.60;5.03;;;9.50;81.50;;;;;;5429273;26;19991;-80
2024/04/18 07:58:17;;;;;;;8.55;4.57;;;9.50;80.90;;;;;;5437099;26;20351;-80
2024/04/18 08:00:43;;;;;;;7.97;4.70;;;9.60;80.60;;;;;;5432221;26;20002;-78
2024/04/18 08:03:08;;;;;;;10.77;4.90;;;9.70;80.70;;;;;;5407587;26;20059;-79
2024/04/18 08:05:35;;;;;;;9.00;4.60;;;9.80;79.00;;;;;;5392191;26;20341;-80
2024/04/18 08:08:00;;;;;;;11.45;4.22;;;9.90;78.70;;;;;;5423260;26;20095;-81
2024/04/18 08:10:26;;;;;;;9.15;4.88;;;9.90;77.80;;;;;;5423460;26;20348;-81
2024/04/18 08:12:52;;;;;;;10.43;4.22;;;10.00;77.70;;;;;;5399117;26;20412;-80
2024/04/18 08:15:17;;;;;;;10.77;4.10;;;10.20;77.50;;;;;;5423610;26;19999;-79
2024/04/18 08:17:43;;;;;;;10.88;4.22;;;10.20;76.80;;;;;;5429196;26;20118;-81
2024/04/18 08:20:10;;;;;;;7.63;4.00;;;10.20;76.60;;;;;;5401693;26;19999;-80
2024/04/18 08:22:36;;;;;;;9.68;4.05;;;10.40;75.80;;;;;;5391549;26;20045;-78
2024/04/18 08:25:06;;;;;;;9.27;3.80;;;10.70;76.70;;;;;;5401138;26;20562;-78
2024/04/18 08:27:32;;;;;;;8.95;3.45;;;10.40;74.00;;;;;;5377716;26;20085;-80
2024/04/18 08:29:58;;;;;;;8.95;3.38;;;10.40;75.00;;;;;;5395170;26;19999;-78
2024/04/18 08:32:23;;;;;;;9.02;4.13;;;10.60;74.60;;;;;;5380591;26;20179;-80
2024/04/18 08:34:49;;;;;;;7.93;2.70;;;10.70;74.40;;;;;;5382392;26;20824;-81
2024/04/18 08:37:14;;;;;;;7.10;2.90;;;10.80;72.90;;;;;;5389900;26;20021;-79
2024/04/18 08:39:40;;;;;;;7.28;2.95;;;10.90;73.30;;;;;;5407194;26;20010;-79
2024/04/18 08:42:10;;;;;;;8.18;3.65;;;11.10;72.10;;;;;;5392766;26;20025;-79
2024/04/18 08:44:36;;;;;;;9.38;4.03;;;11.50;72.90;;;;;;5364453;26;20000;-80
2024/04/18 08:47:04;;;;;;;5.95;2.92;;;11.50;71.30;;;;;;5369722;26;19995;-81
2024/04/18 08:49:31;;;;;;;8.27;4.30;;;11.50;69.20;;;;;;5393632;26;20000;-78
2024/04/18 08:51:58;;;;;;;7.32;4.05;;;11.60;68.90;;;;;;5398304;26;20101;-81
2024/04/18 08:54:27;;;;;;;6.53;3.03;;;11.70;68.40;;;;;;5341380;26;20380;-80
2024/04/18 08:56:55;;;;;;;7.10;3.20;;;11.70;68.30;;;;;;5401875;26;19995;-79
2024/04/18 08:59:22;;;;;;;10.88;3.35;;;11.70;68.00;;;;;;5389149;26;20004;-81
2024/04/18 09:01:48;;;;;;;10.93;3.50;;;12.20;68.60;;;;;;5389461;26;20008;-80
2024/04/18 09:04:14;;;;;;;7.72;3.47;;;12.30;68.10;;;;;;5377371;26;20003;-79
2024/04/18 09:06:39;;;;;;;6.47;3.20;;;12.20;67.30;;;;;;5378166;26;20022;-79
2024/04/18 09:09:11;;;;;;;7.72;3.28;;;12.10;66.10;;;;;;5390533;26;20359;-79
2024/04/18 09:11:37;;;;;;;8.20;4.30;;;12.00;65.20;;;;;;5390375;26;20043;-79
2024/04/18 09:14:05;;;;;;;6.25;3.03;;;12.10;66.50;;;;;;5381541;26;20343;-78
2024/04/18 09:16:31;;;;;;;7.28;3.70;;;12.30;64.20;;;;;;5363549;26;20844;-79
2024/04/18 09:18:57;;;;;;;9.40;3.10;;;11.90;64.60;;;;;;5388541;26;20003;-80
2024/04/18 09:21:28;;;;;;;7.72;2.80;;;11.80;65.80;;;;;;5388432;26;20007;-79
2024/04/18 09:23:54;;;;;;;4.30;2.40;;;11.70;65.90;;;;;;5403613;26;20002;-79
2024/04/18 09:26:20;;;;;;;4.72;2.30;;;11.80;64.10;;;;;;5398174;26;20719;-79
2024/04/18 09:28:46;;;;;;;6.22;2.22;;;11.90;64.80;;;;;;5375288;26;20011;-79
2024/04/18 09:31:12;;;;;;;7.20;2.45;;;12.10;62.00;;;;;;5406442;26;20500;-79
2024/04/18 09:33:38;;;;;;;4.97;2.33;;;12.40;64.50;;;;;;5392418;26;19996;-79
2024/04/18 09:36:04;;;;;;;6.28;2.42;;;12.70;62.10;;;;;;5395377;26;20043;-80
2024/04/18 09:38:34;;;;;;;7.43;2.85;;;12.90;64.40;;;;;;5394376;26;20050;-80
2024/04/18 09:41:15;;;;;;;6.90;2.53;;;13.10;62.90;;;;;;5395708;26;20000;-82
2024/04/18 09:44:10;;;;;;;7.68;2.55;;;13.10;62.20;;;;;;5398722;26;19990;-80
2024/04/18 09:46:36;;;;;;;4.40;2.10;;;13.00;62.50;;;;;;5386842;26;20000;-81
2024/04/18 09:49:02;;;;;;;8.88;2.40;;;13.00;62.00;;;;;;5359345;26;20433;-80
2024/04/18 09:51:28;;;;;;;7.18;2.20;;;13.40;60.80;;;;;;5398791;26;20019;-80
2024/04/18 09:53:55;;;;;;;6.00;1.98;;;13.80;61.70;;;;;;5399221;26;20324;-79
2024/04/18 09:56:23;;;;;;;3.50;2.05;;;13.90;61.00;;;;;;5388921;26;20003;-80
2024/04/18 09:58:50;;;;;;;3.92;1.98;;;13.50;61.60;;;;;;5361054;26;20000;-82
2024/04/18 10:01:17;;;;;;;5.28;2.05;;;13.00;60.90;;;;;;5390802;26;20327;-80
2024/04/18 10:03:43;;;;;;;7.53;2.13;;;12.60;63.10;;;;;;5395870;26;20041;-80
2024/04/18 10:06:11;;;;;;;4.53;2.28;;;12.40;63.30;;;;;;5394001;26;20007;-81
2024/04/18 10:08:40;;;;;;;4.63;1.80;;;12.30;64.40;;;;;;5392688;26;20035;-80
2024/04/18 10:11:08;;;;;;;4.40;1.70;;;12.10;64.90;;;;;;5365268;26;19996;-81
2024/04/18 10:13:36;;;;;;;4.95;1.85;;;12.10;64.20;;;;;;5371386;26;19999;-80
2024/04/18 10:16:10;;;;;;;4.50;1.85;;;12.50;64.80;;;;;;5393233;26;20007;-79
2024/04/18 10:18:36;;;;;;;6.35;2.20;;;12.90;63.00;;;;;;5400881;26;20020;-80
2024/04/18 10:21:16;;;;;;;7.78;2.58;;;13.10;65.40;;;;;;5380897;26;20071;-81
2024/04/18 10:23:49;;;;;;;4.78;2.28;;;13.60;69.00;;;;;;5350370;26;19996;-82
2024/04/18 10:26:16;;;;;;;4.43;2.28;;;14.00;68.80;;;;;;5357274;26;20015;-81
2024/04/18 10:28:42;;;;;;;6.93;2.50;;;13.30;66.90;;;;;;5345324;26;20005;-80
2024/04/18 10:31:08;;;;;;;6.15;2.88;;;12.90;67.70;;;;;;5347598;26;20305;-80
2024/04/18 10:33:39;;;;;;;6.25;2.40;;;12.60;68.00;;;;;;5325150;26;19995;-80
2024/04/18 10:36:14;;;;;;;6.82;2.60;;;12.50;69.30;;;;;;5338695;26;20362;-80
2024/04/18 10:38:47;;;;;;;5.93;3.13;;;12.80;69.00;;;;;;5322823;26;20009;-80
2024/04/18 10:41:17;;;;;;;19.75;12.52;;;13.30;68.10;;;;;;5343745;26;20001;-80
2024/04/18 10:43:44;;;;;;;23.02;16.20;;;13.40;66.60;;;;;;5340074;26;20012;-82
2024/04/18 10:46:12;;;;;;;28.95;19.67;;;13.20;67.10;;;;;;5346246;26;20008;-81
2024/04/18 10:48:39;;;;;;;15.43;7.53;;;13.30;67.10;;;;;;5345383;26;20004;-82
2024/04/18 10:51:05;;;;;;;10.38;5.40;;;13.50;66.60;;;;;;5348478;26;20007;-78
2024/04/18 10:53:32;;;;;;;14.50;6.82;;;13.60;64.50;;;;;;5344478;26;20014;-81
2024/04/18 10:55:58;;;;;;;9.38;4.80;;;13.80;65.20;;;;;;5345235;26;20005;-79
2024/04/18 10:58:25;;;;;;;10.35;4.50;;;13.60;65.00;;;;;;5355237;26;20000;-81
2024/04/18 11:00:57;;;;;;;9.65;4.88;;;13.20;63.40;;;;;;5359488;26;20016;-80
2024/04/18 11:03:23;;;;;;;10.15;4.25;;;13.00;63.80;;;;;;5352129;26;20073;-81
2024/04/18 11:05:49;;;;;;;9.70;5.47;;;13.10;64.80;;;;;;5338142;26;20369;-80
2024/04/18 11:08:16;;;;;;;9.25;4.80;;;12.80;64.80;;;;;;5349344;26;19993;-81
2024/04/18 11:10:44;;;;;;;9.45;3.92;;;12.80;66.00;;;;;;5330219;26;20012;-79
2024/04/18 11:13:10;;;;;;;5.60;2.70;;;12.60;65.90;;;;;;5322360;26;20012;-80
2024/04/18 11:15:37;;;;;;;7.15;2.55;;;12.70;64.50;;;;;;5327213;26;21331;-80
2024/04/18 11:18:04;;;;;;;5.80;2.78;;;12.80;64.20;;;;;;5320581;26;20036;-81
2024/04/18 11:20:31;;;;;;;8.77;3.35;;;12.70;64.50;;;;;;5346298;26;20080;-80
2024/04/18 11:22:57;;;;;;;5.82;2.53;;;12.70;64.20;;;;;;5350116;26;20015;-81
2024/04/18 11:25:26;;;;;;;5.28;2.50;;;12.60;63.80;;;;;;5311704;26;20016;-81
2024/04/18 11:27:57;;;;;;;7.65;2.80;;;12.60;64.30;;;;;;5322050;26;20361;-79
2024/04/18 11:30:25;;;;;;;4.55;2.42;;;12.60;65.10;;;;;;5304068;26;19996;-80
2024/04/18 11:33:00;;;;;;;6.45;2.20;;;12.60;66.10;;;;;;5314233;26;20019;-79
2024/04/18 11:35:26;;;;;;;4.15;2.40;;;12.30;66.40;;;;;;5311797;26;20004;-80
2024/04/18 11:37:55;;;;;;;7.35;2.95;;;12.60;67.40;;;;;;5355362;26;20437;-80
2024/04/18 11:40:21;;;;;;;5.63;2.30;;;12.80;67.30;;;;;;5335335;26;20503;-82
2024/04/18 11:42:47;;;;;;;4.90;2.60;;;12.80;66.80;;;;;;5328418;26;20132;-82
2024/04/18 11:45:12;;;;;;;6.60;2.70;;;12.90;66.40;;;;;;5330436;26;20758;-81
2024/04/18 11:47:38;;;;;;;7.55;2.47;;;13.10;66.50;;;;;;5331091;26;20075;-79
2024/04/18 11:50:06;;;;;;;3.80;1.90;;;13.20;65.00;;;;;;5372672;26;20011;-80
2024/04/18 11:52:32;;;;;;;3.10;1.73;;;13.70;63.30;;;;;;5380192;26;20008;-81
2024/04/18 11:54:57;;;;;;;2.85;1.45;;;13.90;59.60;;;;;;5359431;26;20130;-79
2024/04/18 11:57:23;;;;;;;2.75;1.33;;;14.50;57.90;;;;;;5363984;26;20015;-80
2024/04/18 11:59:52;;;;;;;4.10;1.90;;;14.80;56.30;;;;;;5341350;26;20007;-81
2024/04/18 12:02:21;;;;;;;4.82;2.67;;;15.10;57.10;;;;;;5322170;26;20016;-83
2024/04/18 12:04:48;;;;;;;5.60;2.30;;;14.60;61.00;;;;;;5331412;26;20938;-81
2024/04/18 12:07:14;;;;;;;7.70;2.72;;;13.90;62.40;;;;;;5325987;26;20000;-79
2024/04/18 12:09:45;;;;;;;4.55;2.30;;;13.30;63.00;;;;;;5361105;26;20015;-80
2024/04/18 12:12:11;;;;;;;5.55;2.40;;;13.10;63.50;;;;;;5319858;26;20001;-81
2024/04/18 12:14:37;;;;;;;6.25;2.42;;;12.90;65.10;;;;;;5334339;26;20992;-80
2024/04/18 12:17:03;;;;;;;6.18;3.25;;;13.10;66.60;;;;;;5337177;26;20337;-82
2024/04/18 12:19:29;;;;;;;8.05;3.15;;;13.00;66.10;;;;;;5339570;26;20334;-81
2024/04/18 12:21:55;;;;;;;5.60;3.20;;;13.10;66.20;;;;;;5390537;26;20315;-82
2024/04/18 12:24:20;;;;;;;3.65;2.20;;;13.20;64.50;;;;;;5368145;26;20040;-81
2024/04/18 12:26:46;;;;;;;5.28;2.78;;;13.60;62.90;;;;;;5390196;26;20072;-82
2024/04/18 12:29:12;;;;;;;5.85;2.40;;;13.90;60.90;;;;;;5422292;26;20011;-81
2024/04/18 12:31:37;;;;;;;4.07;2.17;;;14.10;59.80;;;;;;5394648;26;20065;-82
2024/04/18 12:34:03;;;;;;;4.72;2.50;;;14.40;59.90;;;;;;5411776;26;20431;-81
2024/04/18 12:36:29;;;;;;;6.82;2.55;;;14.40;58.50;;;;;;5399701;26;20014;-80
2024/04/18 12:38:54;;;;;;;7.70;3.13;;;14.70;60.70;;;;;;5378775;26;20331;-81
2024/04/18 12:41:20;;;;;;;2.10;1.60;;;14.30;59.60;;;;;;5390213;26;19996;-81
2024/04/18 12:43:46;;;;;;;4.90;1.80;;;14.30;57.60;;;;;;5405911;26;20655;-80
2024/04/18 12:46:11;;;;;;;4.80;2.15;;;14.50;58.30;;;;;;5400717;26;20007;-81